sensor_id;sensor_type;location;lat;lon;timestamp;P1;durP1;ratioP1;P2;durP2;ratioP2
21128;SDS011;10722;51.910;8.352;2022-09-09T00:02:20;9.82;;;2.00;;
21128;SDS011;10722;51.910;8.352;2022-09-09T00:05:17;8.98;;;1.70;;
21128;SDS011;10722;51.910;8.352;2022-09-09T00:08:20;8.50;;;1.70;;
21128;SDS011;10722;51.910;8.352;2022-09-09T00:11:10;7.55;;;1.90;;
21128;SDS011;10722;51.910;8.352;2022-09-09T00:13:58;7.97;;;1.90;;
21128;SDS011;10722;51.910;8.352;2022-09-09T00:16:49;9.98;;;1.77;;
21128;SDS011;10722;51.910;8.352;2022-09-09T00:29:05;8.45;;;1.80;;
21128;SDS011;10722;51.910;8.352;2022-09-09T00:32:00;10.98;;;1.98;;
21128;SDS011;10722;51.910;8.352;2022-09-09T00:34:57;10.23;;;2.17;;
21128;SDS011;10722;51.910;8.352;2022-09-09T00:37:46;10.32;;;2.10;;
21128;SDS011;10722;51.910;8.352;2022-09-09T00:40:35;10.93;;;2.00;;
21128;SDS011;10722;51.910;8.352;2022-09-09T00:59:01;9.60;;;2.30;;
21128;SDS011;10722;51.910;8.352;2022-09-09T01:01:58;11.50;;;2.30;;
21128;SDS011;10722;51.910;8.352;2022-09-09T01:04:43;7.97;;;2.25;;
21128;SDS011;10722;51.910;8.352;2022-09-09T01:07:28;9.75;;;2.42;;
21128;SDS011;10722;51.910;8.352;2022-09-09T01:10:26;8.73;;;2.13;;
21128;SDS011;10722;51.910;8.352;2022-09-09T01:13:22;9.20;;;2.22;;
21128;SDS011;10722;51.910;8.352;2022-09-09T01:16:10;9.65;;;2.13;;
21128;SDS011;10722;51.910;8.352;2022-09-09T01:18:56;10.35;;;2.05;;
21128;SDS011;10722;51.910;8.352;2022-09-09T01:21:50;10.07;;;2.25;;
21128;SDS011;10722;51.910;8.352;2022-09-09T01:28:13;7.82;;;1.95;;
21128;SDS011;10722;51.910;8.352;2022-09-09T01:31:04;7.55;;;1.80;;
21128;SDS011;10722;51.910;8.352;2022-09-09T01:33:51;12.82;;;2.42;;
21128;SDS011;10722;51.910;8.352;2022-09-09T01:39:24;9.07;;;2.05;;
21128;SDS011;10722;51.910;8.352;2022-09-09T01:42:12;8.32;;;2.05;;
21128;SDS011;10722;51.910;8.352;2022-09-09T01:44:59;9.73;;;2.10;;
21128;SDS011;10722;51.910;8.352;2022-09-09T01:47:44;6.07;;;1.98;;
21128;SDS011;10722;51.910;8.352;2022-09-09T01:50:30;7.40;;;2.20;;
21128;SDS011;10722;51.910;8.352;2022-09-09T01:53:16;6.10;;;1.80;;
21128;SDS011;10722;51.910;8.352;2022-09-09T02:03:11;7.90;;;2.10;;
21128;SDS011;10722;51.910;8.352;2022-09-09T02:05:41;8.32;;;2.05;;
21128;SDS011;10722;51.910;8.352;2022-09-09T02:08:47;9.05;;;2.10;;
21128;SDS011;10722;51.910;8.352;2022-09-09T02:11:34;12.40;;;2.53;;
21128;SDS011;10722;51.910;8.352;2022-09-09T02:14:22;6.43;;;1.90;;
21128;SDS011;10722;51.910;8.352;2022-09-09T02:17:13;8.05;;;2.33;;
21128;SDS011;10722;51.910;8.352;2022-09-09T02:20:03;9.05;;;1.92;;
21128;SDS011;10722;51.910;8.352;2022-09-09T02:22:52;7.10;;;2.03;;
21128;SDS011;10722;51.910;8.352;2022-09-09T02:25:38;8.40;;;2.13;;
21128;SDS011;10722;51.910;8.352;2022-09-09T02:28:26;11.13;;;2.47;;
21128;SDS011;10722;51.910;8.352;2022-09-09T02:31:15;9.38;;;2.10;;
21128;SDS011;10722;51.910;8.352;2022-09-09T02:34:03;8.98;;;2.30;;
21128;SDS011;10722;51.910;8.352;2022-09-09T02:36:51;7.25;;;1.90;;
21128;SDS011;10722;51.910;8.352;2022-09-09T02:39:39;9.40;;;2.10;;
21128;SDS011;10722;51.910;8.352;2022-09-09T02:42:24;8.65;;;2.08;;
21128;SDS011;10722;51.910;8.352;2022-09-09T02:45:10;7.55;;;2.00;;
21128;SDS011;10722;51.910;8.352;2022-09-09T02:48:09;10.52;;;2.10;;
21128;SDS011;10722;51.910;8.352;2022-09-09T02:51:09;8.90;;;2.10;;
21128;SDS011;10722;51.910;8.352;2022-09-09T02:54:04;8.75;;;2.28;;
21128;SDS011;10722;51.910;8.352;2022-09-09T02:57:06;7.15;;;2.28;;
21128;SDS011;10722;51.910;8.352;2022-09-09T02:59:57;9.50;;;2.42;;
21128;SDS011;10722;51.910;8.352;2022-09-09T03:02:43;10.77;;;2.70;;
21128;SDS011;10722;51.910;8.352;2022-09-09T03:05:28;8.88;;;2.80;;
21128;SDS011;10722;51.910;8.352;2022-09-09T03:08:13;12.23;;;2.78;;
21128;SDS011;10722;51.910;8.352;2022-09-09T03:10:58;10.40;;;2.85;;
21128;SDS011;10722;51.910;8.352;2022-09-09T03:13:44;13.57;;;3.00;;
21128;SDS011;10722;51.910;8.352;2022-09-09T03:16:29;11.23;;;2.65;;
21128;SDS011;10722;51.910;8.352;2022-09-09T03:19:15;14.25;;;3.03;;
21128;SDS011;10722;51.910;8.352;2022-09-09T03:21:59;10.85;;;2.92;;
21128;SDS011;10722;51.910;8.352;2022-09-09T03:24:45;12.93;;;3.38;;
21128;SDS011;10722;51.910;8.352;2022-09-09T03:27:30;9.38;;;2.65;;
21128;SDS011;10722;51.910;8.352;2022-09-09T03:30:15;11.73;;;2.80;;
21128;SDS011;10722;51.910;8.352;2022-09-09T03:33:00;9.35;;;2.80;;
21128;SDS011;10722;51.910;8.352;2022-09-09T03:35:46;11.55;;;2.90;;
21128;SDS011;10722;51.910;8.352;2022-09-09T03:38:31;11.88;;;2.90;;
21128;SDS011;10722;51.910;8.352;2022-09-09T03:41:16;11.05;;;2.80;;
21128;SDS011;10722;51.910;8.352;2022-09-09T03:44:01;13.68;;;3.05;;
21128;SDS011;10722;51.910;8.352;2022-09-09T03:46:46;14.65;;;3.35;;
21128;SDS011;10722;51.910;8.352;2022-09-09T03:49:32;11.90;;;3.05;;
21128;SDS011;10722;51.910;8.352;2022-09-09T03:52:17;10.98;;;3.20;;
21128;SDS011;10722;51.910;8.352;2022-09-09T03:55:07;10.88;;;3.00;;
21128;SDS011;10722;51.910;8.352;2022-09-09T03:57:53;11.20;;;3.10;;
21128;SDS011;10722;51.910;8.352;2022-09-09T04:00:38;12.45;;;3.03;;
21128;SDS011;10722;51.910;8.352;2022-09-09T04:03:24;13.05;;;3.00;;
21128;SDS011;10722;51.910;8.352;2022-09-09T04:06:12;9.60;;;2.70;;
21128;SDS011;10722;51.910;8.352;2022-09-09T04:08:58;11.48;;;2.90;;
21128;SDS011;10722;51.910;8.352;2022-09-09T04:11:43;13.27;;;3.53;;
21128;SDS011;10722;51.910;8.352;2022-09-09T04:14:28;10.90;;;3.35;;
21128;SDS011;10722;51.910;8.352;2022-09-09T04:17:13;10.57;;;2.83;;
21128;SDS011;10722;51.910;8.352;2022-09-09T04:19:58;15.02;;;3.40;;
21128;SDS011;10722;51.910;8.352;2022-09-09T04:22:43;14.85;;;3.72;;
21128;SDS011;10722;51.910;8.352;2022-09-09T04:25:28;15.27;;;3.70;;
21128;SDS011;10722;51.910;8.352;2022-09-09T04:28:14;9.27;;;2.92;;
21128;SDS011;10722;51.910;8.352;2022-09-09T04:31:06;12.65;;;3.30;;
21128;SDS011;10722;51.910;8.352;2022-09-09T04:33:54;11.50;;;3.05;;
21128;SDS011;10722;51.910;8.352;2022-09-09T04:36:39;11.15;;;3.13;;
21128;SDS011;10722;51.910;8.352;2022-09-09T04:39:24;12.35;;;3.03;;
21128;SDS011;10722;51.910;8.352;2022-09-09T04:42:09;14.60;;;3.17;;
21128;SDS011;10722;51.910;8.352;2022-09-09T04:44:54;12.68;;;3.05;;
21128;SDS011;10722;51.910;8.352;2022-09-09T04:47:39;15.93;;;3.28;;
21128;SDS011;10722;51.910;8.352;2022-09-09T04:50:24;13.55;;;3.50;;
21128;SDS011;10722;51.910;8.352;2022-09-09T04:53:09;13.05;;;3.03;;
21128;SDS011;10722;51.910;8.352;2022-09-09T04:56:28;11.65;;;3.53;;
21128;SDS011;10722;51.910;8.352;2022-09-09T04:59:06;12.70;;;4.05;;
21128;SDS011;10722;51.910;8.352;2022-09-09T05:01:51;12.52;;;3.50;;
21128;SDS011;10722;51.910;8.352;2022-09-09T05:04:36;12.00;;;3.33;;
21128;SDS011;10722;51.910;8.352;2022-09-09T05:07:21;13.38;;;3.58;;
21128;SDS011;10722;51.910;8.352;2022-09-09T05:10:06;12.43;;;3.50;;
21128;SDS011;10722;51.910;8.352;2022-09-09T05:12:52;14.38;;;3.85;;
21128;SDS011;10722;51.910;8.352;2022-09-09T05:15:38;10.85;;;3.30;;
21128;SDS011;10722;51.910;8.352;2022-09-09T05:18:23;16.92;;;3.90;;
21128;SDS011;10722;51.910;8.352;2022-09-09T05:21:08;14.10;;;3.47;;
21128;SDS011;10722;51.910;8.352;2022-09-09T05:23:54;11.65;;;3.67;;
21128;SDS011;10722;51.910;8.352;2022-09-09T05:26:39;19.67;;;4.13;;
21128;SDS011;10722;51.910;8.352;2022-09-09T05:29:25;18.50;;;3.72;;
21128;SDS011;10722;51.910;8.352;2022-09-09T05:32:10;13.85;;;3.78;;
21128;SDS011;10722;51.910;8.352;2022-09-09T05:35:02;13.27;;;3.63;;
21128;SDS011;10722;51.910;8.352;2022-09-09T05:37:47;14.10;;;3.70;;
21128;SDS011;10722;51.910;8.352;2022-09-09T05:40:32;13.85;;;3.50;;
21128;SDS011;10722;51.910;8.352;2022-09-09T05:43:18;12.25;;;3.60;;
21128;SDS011;10722;51.910;8.352;2022-09-09T05:46:08;11.15;;;3.38;;
21128;SDS011;10722;51.910;8.352;2022-09-09T05:48:55;14.82;;;3.65;;
21128;SDS011;10722;51.910;8.352;2022-09-09T05:51:40;12.60;;;3.53;;
21128;SDS011;10722;51.910;8.352;2022-09-09T05:54:26;15.27;;;3.75;;
21128;SDS011;10722;51.910;8.352;2022-09-09T05:57:10;14.20;;;3.85;;
21128;SDS011;10722;51.910;8.352;2022-09-09T05:59:55;14.95;;;3.78;;
21128;SDS011;10722;51.910;8.352;2022-09-09T06:02:40;13.93;;;3.30;;
21128;SDS011;10722;51.910;8.352;2022-09-09T06:05:26;12.23;;;3.58;;
21128;SDS011;10722;51.910;8.352;2022-09-09T06:08:11;13.45;;;3.25;;
21128;SDS011;10722;51.910;8.352;2022-09-09T06:11:03;12.48;;;3.40;;
21128;SDS011;10722;51.910;8.352;2022-09-09T06:13:53;14.00;;;3.78;;
21128;SDS011;10722;51.910;8.352;2022-09-09T06:16:38;11.20;;;3.10;;
21128;SDS011;10722;51.910;8.352;2022-09-09T06:19:23;10.82;;;2.80;;
21128;SDS011;10722;51.910;8.352;2022-09-09T06:22:08;13.90;;;2.95;;
21128;SDS011;10722;51.910;8.352;2022-09-09T06:24:53;8.73;;;2.53;;
21128;SDS011;10722;51.910;8.352;2022-09-09T06:27:39;12.23;;;2.88;;
21128;SDS011;10722;51.910;8.352;2022-09-09T06:30:24;11.57;;;2.90;;
21128;SDS011;10722;51.910;8.352;2022-09-09T06:33:09;9.38;;;2.60;;
21128;SDS011;10722;51.910;8.352;2022-09-09T06:35:55;9.35;;;2.72;;
21128;SDS011;10722;51.910;8.352;2022-09-09T06:38:41;14.55;;;3.17;;
21128;SDS011;10722;51.910;8.352;2022-09-09T06:41:28;12.57;;;2.92;;
21128;SDS011;10722;51.910;8.352;2022-09-09T06:44:14;10.80;;;2.53;;
21128;SDS011;10722;51.910;8.352;2022-09-09T06:46:59;13.30;;;2.78;;
21128;SDS011;10722;51.910;8.352;2022-09-09T06:49:44;13.45;;;2.92;;
21128;SDS011;10722;51.910;8.352;2022-09-09T06:52:32;11.45;;;2.65;;
21128;SDS011;10722;51.910;8.352;2022-09-09T06:55:17;10.20;;;2.70;;
21128;SDS011;10722;51.910;8.352;2022-09-09T06:58:01;11.13;;;2.58;;
21128;SDS011;10722;51.910;8.352;2022-09-09T07:00:46;13.77;;;2.70;;
21128;SDS011;10722;51.910;8.352;2022-09-09T07:03:32;14.07;;;2.90;;
21128;SDS011;10722;51.910;8.352;2022-09-09T07:06:28;14.50;;;2.80;;
21128;SDS011;10722;51.910;8.352;2022-09-09T07:09:15;15.23;;;3.22;;
21128;SDS011;10722;51.910;8.352;2022-09-09T07:12:01;14.32;;;3.20;;
21128;SDS011;10722;51.910;8.352;2022-09-09T07:14:46;12.55;;;2.80;;
21128;SDS011;10722;51.910;8.352;2022-09-09T07:17:31;11.73;;;2.97;;
21128;SDS011;10722;51.910;8.352;2022-09-09T07:20:16;10.40;;;2.63;;
21128;SDS011;10722;51.910;8.352;2022-09-09T07:23:01;12.38;;;2.85;;
21128;SDS011;10722;51.910;8.352;2022-09-09T07:25:46;14.50;;;2.97;;
21128;SDS011;10722;51.910;8.352;2022-09-09T07:28:31;10.68;;;2.50;;
21128;SDS011;10722;51.910;8.352;2022-09-09T07:31:17;14.50;;;2.42;;
21128;SDS011;10722;51.910;8.352;2022-09-09T07:34:04;11.82;;;2.80;;
21128;SDS011;10722;51.910;8.352;2022-09-09T07:36:50;10.73;;;2.38;;
21128;SDS011;10722;51.910;8.352;2022-09-09T07:39:36;11.48;;;2.53;;
21128;SDS011;10722;51.910;8.352;2022-09-09T07:42:21;12.77;;;2.60;;
21128;SDS011;10722;51.910;8.352;2022-09-09T07:45:06;11.10;;;2.40;;
21128;SDS011;10722;51.910;8.352;2022-09-09T07:47:51;11.88;;;2.60;;
21128;SDS011;10722;51.910;8.352;2022-09-09T07:50:36;11.63;;;2.45;;
21128;SDS011;10722;51.910;8.352;2022-09-09T07:53:21;9.90;;;2.35;;
21128;SDS011;10722;51.910;8.352;2022-09-09T07:56:07;11.88;;;2.78;;
21128;SDS011;10722;51.910;8.352;2022-09-09T07:58:56;13.35;;;2.28;;
21128;SDS011;10722;51.910;8.352;2022-09-09T08:01:46;13.30;;;2.75;;
21128;SDS011;10722;51.910;8.352;2022-09-09T08:04:34;13.07;;;2.50;;
21128;SDS011;10722;51.910;8.352;2022-09-09T08:07:19;11.70;;;2.50;;
21128;SDS011;10722;51.910;8.352;2022-09-09T08:10:04;16.27;;;2.80;;
21128;SDS011;10722;51.910;8.352;2022-09-09T08:12:50;10.27;;;2.10;;
21128;SDS011;10722;51.910;8.352;2022-09-09T08:15:55;13.75;;;2.10;;
21128;SDS011;10722;51.910;8.352;2022-09-09T08:18:49;11.35;;;2.05;;
21128;SDS011;10722;51.910;8.352;2022-09-09T08:21:36;13.65;;;2.13;;
21128;SDS011;10722;51.910;8.352;2022-09-09T08:24:22;6.65;;;1.80;;
21128;SDS011;10722;51.910;8.352;2022-09-09T08:27:07;11.75;;;2.05;;
21128;SDS011;10722;51.910;8.352;2022-09-09T08:29:52;12.63;;;2.10;;
21128;SDS011;10722;51.910;8.352;2022-09-09T08:32:37;11.23;;;2.10;;
21128;SDS011;10722;51.910;8.352;2022-09-09T08:35:27;11.02;;;2.10;;
21128;SDS011;10722;51.910;8.352;2022-09-09T08:38:12;10.52;;;1.95;;
21128;SDS011;10722;51.910;8.352;2022-09-09T08:41:03;12.23;;;2.35;;
21128;SDS011;10722;51.910;8.352;2022-09-09T08:50:34;11.23;;;2.15;;
21128;SDS011;10722;51.910;8.352;2022-09-09T08:53:26;10.30;;;1.80;;
21128;SDS011;10722;51.910;8.352;2022-09-09T08:56:14;11.38;;;2.10;;
21128;SDS011;10722;51.910;8.352;2022-09-09T08:59:03;9.52;;;1.80;;
21128;SDS011;10722;51.910;8.352;2022-09-09T09:01:55;9.80;;;1.80;;
21128;SDS011;10722;51.910;8.352;2022-09-09T09:11:10;8.52;;;1.77;;
21128;SDS011;10722;51.910;8.352;2022-09-09T09:14:00;13.70;;;1.92;;
21128;SDS011;10722;51.910;8.352;2022-09-09T09:19:44;12.90;;;2.10;;
21128;SDS011;10722;51.910;8.352;2022-09-09T09:22:39;8.43;;;1.70;;
21128;SDS011;10722;51.910;8.352;2022-09-09T09:25:38;13.48;;;1.80;;
21128;SDS011;10722;51.910;8.352;2022-09-09T09:28:27;11.57;;;1.67;;
21128;SDS011;10722;51.910;8.352;2022-09-09T09:31:17;10.70;;;1.80;;
21128;SDS011;10722;51.910;8.352;2022-09-09T09:34:04;9.90;;;1.70;;
21128;SDS011;10722;51.910;8.352;2022-09-09T09:36:54;12.73;;;2.10;;
21128;SDS011;10722;51.910;8.352;2022-09-09T09:39:43;10.23;;;1.70;;
21128;SDS011;10722;51.910;8.352;2022-09-09T09:42:48;9.63;;;1.73;;
21128;SDS011;10722;51.910;8.352;2022-09-09T09:45:44;10.45;;;1.60;;
21128;SDS011;10722;51.910;8.352;2022-09-09T09:48:44;8.80;;;1.70;;
21128;SDS011;10722;51.910;8.352;2022-09-09T09:51:41;8.80;;;1.63;;
21128;SDS011;10722;51.910;8.352;2022-09-09T09:54:27;12.32;;;2.05;;
21128;SDS011;10722;51.910;8.352;2022-09-09T09:57:14;9.05;;;1.52;;
21128;SDS011;10722;51.910;8.352;2022-09-09T10:02:59;13.60;;;2.05;;
21128;SDS011;10722;51.910;8.352;2022-09-09T10:05:45;13.48;;;1.90;;
21128;SDS011;10722;51.910;8.352;2022-09-09T10:08:33;9.45;;;1.70;;
21128;SDS011;10722;51.910;8.352;2022-09-09T10:21:02;10.50;;;1.80;;
21128;SDS011;10722;51.910;8.352;2022-09-09T10:27:20;15.00;;;2.10;;
21128;SDS011;10722;51.910;8.352;2022-09-09T10:30:16;8.60;;;1.75;;
21128;SDS011;10722;51.910;8.352;2022-09-09T10:33:16;12.55;;;2.00;;
21128;SDS011;10722;51.910;8.352;2022-09-09T10:36:26;11.55;;;2.10;;
21128;SDS011;10722;51.910;8.352;2022-09-09T10:39:31;12.80;;;2.10;;
21128;SDS011;10722;51.910;8.352;2022-09-09T10:42:28;10.63;;;1.98;;
21128;SDS011;10722;51.910;8.352;2022-09-09T10:57:45;15.48;;;1.80;;
21128;SDS011;10722;51.910;8.352;2022-09-09T11:03:26;13.18;;;2.03;;
21128;SDS011;10722;51.910;8.352;2022-09-09T11:06:17;10.13;;;1.60;;
21128;SDS011;10722;51.910;8.352;2022-09-09T11:09:08;10.35;;;1.80;;
21128;SDS011;10722;51.910;8.352;2022-09-09T11:12:00;11.05;;;1.83;;
21128;SDS011;10722;51.910;8.352;2022-09-09T11:14:54;11.70;;;1.90;;
21128;SDS011;10722;51.910;8.352;2022-09-09T11:17:46;10.18;;;1.95;;
21128;SDS011;10722;51.910;8.352;2022-09-09T11:20:34;11.35;;;1.92;;
21128;SDS011;10722;51.910;8.352;2022-09-09T11:23:22;12.50;;;1.95;;
21128;SDS011;10722;51.910;8.352;2022-09-09T11:26:15;14.40;;;2.20;;
21128;SDS011;10722;51.910;8.352;2022-09-09T11:32:10;8.95;;;1.70;;
21128;SDS011;10722;51.910;8.352;2022-09-09T11:38:27;8.68;;;1.70;;
21128;SDS011;10722;51.910;8.352;2022-09-09T11:41:14;11.18;;;1.98;;
21128;SDS011;10722;51.910;8.352;2022-09-09T11:44:12;10.23;;;1.77;;
21128;SDS011;10722;51.910;8.352;2022-09-09T11:47:02;10.05;;;1.60;;
21128;SDS011;10722;51.910;8.352;2022-09-09T11:49:47;10.82;;;1.58;;
21128;SDS011;10722;51.910;8.352;2022-09-09T11:52:36;8.05;;;1.27;;
21128;SDS011;10722;51.910;8.352;2022-09-09T11:55:27;6.65;;;1.40;;
21128;SDS011;10722;51.910;8.352;2022-09-09T11:58:17;7.95;;;1.70;;
21128;SDS011;10722;51.910;8.352;2022-09-09T12:01:12;9.60;;;1.27;;
21128;SDS011;10722;51.910;8.352;2022-09-09T12:04:13;11.98;;;1.70;;
21128;SDS011;10722;51.910;8.352;2022-09-09T12:13:08;12.88;;;1.95;;
21128;SDS011;10722;51.910;8.352;2022-09-09T12:16:06;8.15;;;1.30;;
21128;SDS011;10722;51.910;8.352;2022-09-09T12:22:05;9.25;;;1.65;;
21128;SDS011;10722;51.910;8.352;2022-09-09T12:28:18;9.82;;;1.60;;
21128;SDS011;10722;51.910;8.352;2022-09-09T12:40:26;11.15;;;1.90;;
21128;SDS011;10722;51.910;8.352;2022-09-09T12:43:20;7.95;;;1.52;;
21128;SDS011;10722;51.910;8.352;2022-09-09T12:46:07;9.68;;;1.48;;
21128;SDS011;10722;51.910;8.352;2022-09-09T12:48:58;7.10;;;1.65;;
21128;SDS011;10722;51.910;8.352;2022-09-09T12:51:44;6.85;;;1.55;;
21128;SDS011;10722;51.910;8.352;2022-09-09T12:54:29;11.38;;;1.80;;
21128;SDS011;10722;51.910;8.352;2022-09-09T12:57:14;7.45;;;1.60;;
21128;SDS011;10722;51.910;8.352;2022-09-09T13:00:10;8.55;;;1.67;;
21128;SDS011;10722;51.910;8.352;2022-09-09T13:03:01;9.82;;;1.70;;
21128;SDS011;10722;51.910;8.352;2022-09-09T13:06:10;9.13;;;1.63;;
21128;SDS011;10722;51.910;8.352;2022-09-09T13:08:57;8.82;;;1.60;;
21128;SDS011;10722;51.910;8.352;2022-09-09T13:11:46;6.72;;;1.50;;
21128;SDS011;10722;51.910;8.352;2022-09-09T13:14:39;7.57;;;1.48;;
21128;SDS011;10722;51.910;8.352;2022-09-09T13:17:29;8.10;;;1.58;;
21128;SDS011;10722;51.910;8.352;2022-09-09T13:20:16;8.02;;;1.70;;
21128;SDS011;10722;51.910;8.352;2022-09-09T13:23:02;4.35;;;1.10;;
21128;SDS011;10722;51.910;8.352;2022-09-09T13:25:57;7.43;;;1.00;;
21128;SDS011;10722;51.910;8.352;2022-09-09T13:28:47;8.32;;;1.27;;
21128;SDS011;10722;51.910;8.352;2022-09-09T13:31:33;6.68;;;1.20;;
21128;SDS011;10722;51.910;8.352;2022-09-09T13:37:17;5.68;;;1.17;;
21128;SDS011;10722;51.910;8.352;2022-09-09T13:40:18;8.15;;;1.23;;
21128;SDS011;10722;51.910;8.352;2022-09-09T13:43:05;6.78;;;1.17;;
21128;SDS011;10722;51.910;8.352;2022-09-09T13:46:21;8.68;;;1.40;;
21128;SDS011;10722;51.910;8.352;2022-09-09T13:52:02;5.78;;;1.20;;
21128;SDS011;10722;51.910;8.352;2022-09-09T13:54:55;8.77;;;1.30;;
21128;SDS011;10722;51.910;8.352;2022-09-09T13:57:49;5.60;;;1.23;;
21128;SDS011;10722;51.910;8.352;2022-09-09T14:00:38;7.38;;;1.23;;
21128;SDS011;10722;51.910;8.352;2022-09-09T14:03:23;8.13;;;1.40;;
21128;SDS011;10722;51.910;8.352;2022-09-09T14:06:09;8.15;;;1.48;;
21128;SDS011;10722;51.910;8.352;2022-09-09T14:08:55;10.80;;;1.60;;
21128;SDS011;10722;51.910;8.352;2022-09-09T14:11:40;4.82;;;1.20;;
21128;SDS011;10722;51.910;8.352;2022-09-09T14:14:26;5.90;;;1.00;;
21128;SDS011;10722;51.910;8.352;2022-09-09T14:17:11;6.55;;;1.50;;
21128;SDS011;10722;51.910;8.352;2022-09-09T14:19:56;6.50;;;1.13;;
21128;SDS011;10722;51.910;8.352;2022-09-09T14:22:42;7.18;;;1.20;;
21128;SDS011;10722;51.910;8.352;2022-09-09T14:25:27;5.72;;;1.30;;
21128;SDS011;10722;51.910;8.352;2022-09-09T14:28:13;7.32;;;1.27;;
21128;SDS011;10722;51.910;8.352;2022-09-09T14:30:59;6.68;;;1.30;;
21128;SDS011;10722;51.910;8.352;2022-09-09T14:33:45;6.60;;;1.40;;
21128;SDS011;10722;51.910;8.352;2022-09-09T14:36:31;10.93;;;1.50;;
21128;SDS011;10722;51.910;8.352;2022-09-09T14:39:16;9.25;;;1.73;;
21128;SDS011;10722;51.910;8.352;2022-09-09T14:42:01;7.32;;;1.50;;
21128;SDS011;10722;51.910;8.352;2022-09-09T14:44:46;4.60;;;1.10;;
21128;SDS011;10722;51.910;8.352;2022-09-09T14:47:31;10.30;;;1.60;;
21128;SDS011;10722;51.910;8.352;2022-09-09T14:50:16;6.93;;;1.30;;
21128;SDS011;10722;51.910;8.352;2022-09-09T14:53:02;9.05;;;1.42;;
21128;SDS011;10722;51.910;8.352;2022-09-09T14:55:47;8.20;;;1.42;;
21128;SDS011;10722;51.910;8.352;2022-09-09T14:58:32;8.30;;;1.50;;
21128;SDS011;10722;51.910;8.352;2022-09-09T15:01:18;7.18;;;1.40;;
21128;SDS011;10722;51.910;8.352;2022-09-09T15:04:04;9.63;;;1.55;;
21128;SDS011;10722;51.910;8.352;2022-09-09T15:06:50;6.80;;;1.30;;
21128;SDS011;10722;51.910;8.352;2022-09-09T15:09:35;6.43;;;1.30;;
21128;SDS011;10722;51.910;8.352;2022-09-09T15:12:21;7.95;;;1.48;;
21128;SDS011;10722;51.910;8.352;2022-09-09T15:15:06;10.32;;;1.70;;
21128;SDS011;10722;51.910;8.352;2022-09-09T15:17:51;7.32;;;1.45;;
21128;SDS011;10722;51.910;8.352;2022-09-09T15:20:36;4.97;;;1.40;;
21128;SDS011;10722;51.910;8.352;2022-09-09T15:23:24;10.00;;;1.95;;
21128;SDS011;10722;51.910;8.352;2022-09-09T15:26:09;7.40;;;2.05;;
21128;SDS011;10722;51.910;8.352;2022-09-09T15:28:55;8.15;;;1.95;;
21128;SDS011;10722;51.910;8.352;2022-09-09T15:31:41;9.48;;;1.67;;
21128;SDS011;10722;51.910;8.352;2022-09-09T15:34:25;7.63;;;1.38;;
21128;SDS011;10722;51.910;8.352;2022-09-09T15:37:10;10.63;;;1.70;;
21128;SDS011;10722;51.910;8.352;2022-09-09T15:39:56;7.45;;;1.60;;
21128;SDS011;10722;51.910;8.352;2022-09-09T15:42:41;6.90;;;1.45;;
21128;SDS011;10722;51.910;8.352;2022-09-09T15:45:27;6.93;;;1.23;;
21128;SDS011;10722;51.910;8.352;2022-09-09T15:48:11;8.80;;;1.60;;
21128;SDS011;10722;51.910;8.352;2022-09-09T15:51:03;7.53;;;1.27;;
21128;SDS011;10722;51.910;8.352;2022-09-09T15:54:13;8.18;;;1.30;;
21128;SDS011;10722;51.910;8.352;2022-09-09T15:57:00;9.75;;;1.52;;
21128;SDS011;10722;51.910;8.352;2022-09-09T15:59:47;7.88;;;1.55;;
21128;SDS011;10722;51.910;8.352;2022-09-09T16:02:32;8.50;;;1.30;;
21128;SDS011;10722;51.910;8.352;2022-09-09T16:05:16;8.45;;;1.42;;
21128;SDS011;10722;51.910;8.352;2022-09-09T16:08:01;6.63;;;1.50;;
21128;SDS011;10722;51.910;8.352;2022-09-09T16:10:46;9.55;;;1.60;;
21128;SDS011;10722;51.910;8.352;2022-09-09T16:13:38;8.70;;;1.88;;
21128;SDS011;10722;51.910;8.352;2022-09-09T16:16:25;12.00;;;1.90;;
21128;SDS011;10722;51.910;8.352;2022-09-09T16:19:12;7.60;;;1.35;;
21128;SDS011;10722;51.910;8.352;2022-09-09T16:21:57;8.20;;;1.60;;
21128;SDS011;10722;51.910;8.352;2022-09-09T16:24:42;9.77;;;1.65;;
21128;SDS011;10722;51.910;8.352;2022-09-09T16:27:28;6.75;;;1.40;;
21128;SDS011;10722;51.910;8.352;2022-09-09T16:30:13;11.95;;;1.70;;
21128;SDS011;10722;51.910;8.352;2022-09-09T16:32:58;7.90;;;1.52;;
21128;SDS011;10722;51.910;8.352;2022-09-09T16:35:43;7.95;;;1.30;;
21128;SDS011;10722;51.910;8.352;2022-09-09T16:38:29;6.57;;;1.30;;
21128;SDS011;10722;51.910;8.352;2022-09-09T16:41:14;9.35;;;1.60;;
21128;SDS011;10722;51.910;8.352;2022-09-09T16:44:00;6.30;;;1.40;;
21128;SDS011;10722;51.910;8.352;2022-09-09T16:46:49;4.60;;;1.15;;
21128;SDS011;10722;51.910;8.352;2022-09-09T16:49:34;6.90;;;1.10;;
21128;SDS011;10722;51.910;8.352;2022-09-09T16:52:19;4.40;;;1.20;;
21128;SDS011;10722;51.910;8.352;2022-09-09T16:55:04;4.55;;;1.10;;
21128;SDS011;10722;51.910;8.352;2022-09-09T16:57:50;6.93;;;1.25;;
21128;SDS011;10722;51.910;8.352;2022-09-09T17:00:34;6.07;;;1.30;;
21128;SDS011;10722;51.910;8.352;2022-09-09T17:03:19;9.02;;;1.40;;
21128;SDS011;10722;51.910;8.352;2022-09-09T17:06:08;8.18;;;2.55;;
21128;SDS011;10722;51.910;8.352;2022-09-09T17:08:57;7.95;;;1.83;;
21128;SDS011;10722;51.910;8.352;2022-09-09T17:11:44;8.20;;;1.70;;
21128;SDS011;10722;51.910;8.352;2022-09-09T17:14:30;7.93;;;1.63;;
21128;SDS011;10722;51.910;8.352;2022-09-09T17:17:15;5.53;;;1.40;;
21128;SDS011;10722;51.910;8.352;2022-09-09T17:20:16;6.90;;;1.35;;
21128;SDS011;10722;51.910;8.352;2022-09-09T17:23:01;5.82;;;1.45;;
21128;SDS011;10722;51.910;8.352;2022-09-09T17:25:55;8.68;;;1.33;;
21128;SDS011;10722;51.910;8.352;2022-09-09T17:28:42;10.05;;;1.50;;
21128;SDS011;10722;51.910;8.352;2022-09-09T17:31:28;5.40;;;1.23;;
21128;SDS011;10722;51.910;8.352;2022-09-09T17:34:14;6.47;;;1.38;;
21128;SDS011;10722;51.910;8.352;2022-09-09T17:36:59;3.65;;;1.30;;
21128;SDS011;10722;51.910;8.352;2022-09-09T17:39:44;7.55;;;1.67;;
21128;SDS011;10722;51.910;8.352;2022-09-09T17:42:30;9.02;;;1.45;;
21128;SDS011;10722;51.910;8.352;2022-09-09T17:45:15;5.68;;;1.30;;
21128;SDS011;10722;51.910;8.352;2022-09-09T17:48:00;5.93;;;1.15;;
21128;SDS011;10722;51.910;8.352;2022-09-09T17:50:45;5.93;;;1.30;;
21128;SDS011;10722;51.910;8.352;2022-09-09T17:53:30;8.32;;;1.67;;
21128;SDS011;10722;51.910;8.352;2022-09-09T17:56:21;7.18;;;1.50;;
21128;SDS011;10722;51.910;8.352;2022-09-09T17:59:08;7.55;;;1.55;;
21128;SDS011;10722;51.910;8.352;2022-09-09T18:01:54;5.65;;;1.33;;
21128;SDS011;10722;51.910;8.352;2022-09-09T18:04:39;7.05;;;1.48;;
21128;SDS011;10722;51.910;8.352;2022-09-09T18:07:24;9.27;;;1.40;;
21128;SDS011;10722;51.910;8.352;2022-09-09T18:10:09;4.35;;;1.42;;
21128;SDS011;10722;51.910;8.352;2022-09-09T18:12:54;4.78;;;1.30;;
21128;SDS011;10722;51.910;8.352;2022-09-09T18:15:39;8.68;;;1.70;;
21128;SDS011;10722;51.910;8.352;2022-09-09T18:18:33;7.43;;;1.42;;
21128;SDS011;10722;51.910;8.352;2022-09-09T18:21:19;5.50;;;1.50;;
21128;SDS011;10722;51.910;8.352;2022-09-09T18:24:05;5.35;;;1.30;;
21128;SDS011;10722;51.910;8.352;2022-09-09T18:26:50;7.78;;;1.75;;
21128;SDS011;10722;51.910;8.352;2022-09-09T18:29:36;6.07;;;1.58;;
21128;SDS011;10722;51.910;8.352;2022-09-09T18:32:21;6.43;;;1.88;;
21128;SDS011;10722;51.910;8.352;2022-09-09T18:35:06;8.05;;;1.75;;
21128;SDS011;10722;51.910;8.352;2022-09-09T18:37:52;5.45;;;1.55;;
21128;SDS011;10722;51.910;8.352;2022-09-09T18:40:37;7.63;;;1.83;;
21128;SDS011;10722;51.910;8.352;2022-09-09T18:43:22;7.28;;;1.80;;
21128;SDS011;10722;51.910;8.352;2022-09-09T18:46:07;6.40;;;2.08;;